Time;durP1;ratioP1;P1;durP2;ratioP2;P2;SDS_P1;SDS_P2;PMS_P1;PMS_P2;Temp;Humidity;BMP_temperature;BMP_pressure;BME280_temperature;BME280_humidity;BME280_pressure;Samples;Min_cycle;Max_cycle;Signal;HPM_P1;HPM_P2
2022/04/15 17:17:02;;;;;;;;;;;;;;;;;;2098435;27;10383;-80
2022/04/15 17:18:02;;;;;;;;;;;;;;;;;;2102592;28;1154;-81
2022/04/15 17:19:03;;;;;;;;;;;;;;;;;;2102785;28;1167;-82
2022/04/15 17:20:03;;;;;;;;;;;;;;;;;;2096748;28;11852;-84
2022/04/15 17:21:05;;;;;;;;;;;;;;;;;;2080296;28;987;-79
2022/04/15 17:22:06;;;;;;;;;;;;;;;;;;2064271;28;11986;-84
2022/04/15 17:23:06;;;;;;;;;;;;;;;;;;2100530;28;1224;-83
2022/04/15 17:24:09;;;;;;;;;;;;;;;;;;2093536;28;1040;-83
2022/04/15 17:25:11;;;;;;;;;;;;;;;;;;2094092;28;1164;-88
2022/04/15 17:26:14;;;;;;;;;;;;;;;;;;2091704;28;1079;-85
2022/04/15 17:27:14;;;;;;;;;;;;;;;;;;2096955;28;1097;-88
2022/04/15 17:28:15;;;;;;;;;;;;;;;;;;2097450;28;1084;-85
2022/04/15 17:29:17;;;;;;;;;;;;;;;;;;2092940;28;1488;-86
2022/04/15 17:30:17;;;;;;;;;;;;;;;;;;2090203;28;1653;-83
2022/04/15 17:31:18;;;;;;;;;;;;;;;;;;2089721;28;1092;-82
2022/04/15 17:32:18;;;;;;;;;;;;;;;;;;2090051;28;1061;-86
2022/04/15 17:33:19;;;;;;;;;;;;;;;;;;2090052;28;1204;-85
2022/04/15 17:34:20;;;;;;;;;;;;;;;;;;2090009;28;1044;-89
2022/04/15 17:35:21;;;;;;;;;;;;;;;;;;2090025;28;1369;-86
2022/04/15 17:36:22;;;;;;;;;;;;;;;;;;2089899;28;1898;-85
2022/04/15 17:37:22;;;;;;;;;;;;;;;;;;2089953;28;1173;-82
2022/04/15 17:38:23;;;;;;;;;;;;;;;;;;2089697;28;1087;-86
2022/04/15 17:39:24;;;;;;;;;;;;;;;;;;2090037;28;1144;-85
2022/04/15 17:40:25;;;;;;;;;;;;;;;;;;2090014;28;1101;-83
2022/04/15 17:41:26;;;;;;;;;;;;;;;;;;2089985;28;1109;-83
2022/04/15 17:42:26;;;;;;;;;;;;;;;;;;2089846;28;1064;-84
2022/04/15 17:43:28;;;;;;;;;;;;;;;;;;2089660;28;1202;-87
2022/04/15 17:44:28;;;;;;;;;;;;;;;;;;2090131;28;1174;-83
2022/04/15 17:45:30;;;;;;;;;;;;;;;;;;2089816;28;1001;-81
2022/04/15 17:46:31;;;;;;;;;;;;;;;;;;2089655;28;1061;-84
2022/04/15 17:47:32;;;;;;;;;;;;;;;;;;2089943;28;1238;-88
2022/04/15 17:48:34;;;;;;;;;;;;;;;;;;2090025;28;1677;-81
2022/04/15 17:49:34;;;;;;;;;;;;;;;;;;2089847;28;1140;-87
2022/04/15 17:50:35;;;;;;;;;;;;;;;;;;2089899;28;1716;-84
2022/04/15 17:51:35;;;;;;;;;;;;;;;;;;2089917;28;1176;-89
2022/04/15 17:52:36;;;;;;;;;;;;;;;;;;2090239;28;1153;-86
2022/04/15 17:53:36;;;;;;;;;;;;;;;;;;2089893;28;1220;-85
2022/04/15 17:54:38;;;;;;;;;;;;;;;;;;2089766;28;1037;-85
2022/04/15 17:55:38;;;;;;;;;;;;;;;;;;2089871;28;1001;-84
2022/04/15 17:56:40;;;;;;;;;;;;;;;;;;2089686;28;1910;-82
2022/04/15 17:57:40;;;;;;;;;;;;;;;;;;2089818;28;1065;-85
2022/04/15 17:58:41;;;;;;;;;;;;;;;;;;2090150;28;1057;-85
2022/04/15 17:59:42;;;;;;;;;;;;;;;;;;2089759;28;1105;-85
2022/04/15 18:00:43;;;;;;;;;;;;;;;;;;2089619;28;1172;-85
2022/04/15 18:01:44;;;;;;;;;;;;;;;;;;2089800;28;1097;-86
2022/04/15 18:02:44;;;;;;;;;;;;;;;;;;2089925;28;1531;-85
2022/04/15 18:03:45;;;;;;;;;;;;;;;;;;2089788;28;1291;-90
2022/04/15 18:04:46;;;;;;;;;;;;;;;;;;2090465;28;1060;-91
2022/04/15 18:05:47;;;;;;;;;;;;;;;;;;2091682;28;1576;-90
2022/04/15 18:06:49;;;;;;;;;;;;;;;;;;2090531;28;1377;-92
2022/04/15 18:07:51;;;;;;;;;;;;;;;;;;2090868;28;1405;-93
2022/04/15 18:08:53;;;;;;;;;;;;;;;;;;2091064;28;1401;-93
2022/04/15 18:09:54;;;;;;;;;;;;;;;;;;2090721;28;1559;-93
2022/04/15 18:10:55;;;;;;;;;;;;;;;;;;2090917;28;1561;-92
2022/04/15 18:11:57;;;;;;;;;;;;;;;;;;2090873;28;1676;-92
2022/04/15 18:12:57;;;;;;;;;;;;;;;;;;2090709;28;1531;-92
2022/04/15 18:14:00;;;;;;;;;;;;;;;;;;2090735;28;1551;-86
2022/04/15 18:15:00;;;;;;;;;;;;;;;;;;2090575;28;1185;-91
2022/04/15 18:16:01;;;;;;;;;;;;;;;;;;2089265;28;1411;-88
2022/04/15 18:17:02;;;;;;;;;;;;;;;;;;2098228;28;1898;-87
2022/04/15 18:18:03;;;;;;;;;;;;;;;;;;2075143;28;10631;-84
2022/04/15 18:19:04;;;;;;;;;;;;;;;;;;2098555;28;1033;-81
2022/04/15 18:20:05;;;;;;;;;;;;;;;;;;2101206;28;1161;-81
2022/04/15 18:21:06;;;;;;;;;;;;;;;;;;2103503;28;1072;-87
2022/04/15 18:22:16;;;;;;;;;;;;;;;;;;2104351;28;1155;-96
2022/04/15 18:23:17;;;;;;;;;;;;;;;;;;2106777;22;1509;-90
2022/04/15 18:24:24;;;;;;;;;;;;;;;;;;2089953;28;1528;-85
2022/04/15 18:25:24;;;;;;;;;;;;;;;;;;2089966;28;1401;-88
2022/04/15 18:26:26;;;;;;;;;;;;;;;;;;2090336;28;1393;-85
2022/04/15 18:27:26;;;;;;;;;;;;;;;;;;2089368;28;1085;-89
2022/04/15 18:28:27;;;;;;;;;;;;;;;;;;2084189;28;1080;-85
2022/04/15 18:29:27;;;;;;;;;;;;;;;;;;2084749;28;1100;-86
2022/04/15 18:30:28;;;;;;;;;;;;;;;;;;2084352;28;1089;-84
2022/04/15 18:32:54;;;;;;;;;;;;;;;;;;2133040;27;1402;-92
2022/04/15 18:33:55;;;;;;;;;;;;;;;;;;2124205;27;1570;-87
2022/04/15 18:34:56;;;;;;;;;;;;;;;;;;2115450;28;1044;-91
2022/04/15 18:36:02;;;;;;;;;;;;;;;;;;2115807;28;1037;-95
2022/04/15 18:42:06;;;;;;;;;;;;;;;;;;2132404;27;1375;-89
2022/04/15 18:43:09;;;;;;;;;;;;;;;;;;2131036;27;1545;-90
2022/04/15 18:44:10;;;;;;;;;;;;;;;;;;2124183;28;1422;-86
2022/04/15 18:46:13;;;;;;;;;;;;;;;;;;2123902;27;1393;-82
2022/04/15 18:47:17;;;;;;;;;;;;;;;;;;2081398;27;10270;-86
